sensor_id;sensor_type;location;lat;lon;timestamp;temperature;humidity
678;DHT22;321;48.814;9.132;2023-03-03T00:00:38;3.30;99.90
678;DHT22;321;48.814;9.132;2023-03-03T00:03:06;3.30;99.90
678;DHT22;321;48.814;9.132;2023-03-03T00:05:33;3.30;99.90
678;DHT22;321;48.814;9.132;2023-03-03T00:07:59;3.20;99.90
678;DHT22;321;48.814;9.132;2023-03-03T00:10:25;3.20;99.90
678;DHT22;321;48.814;9.132;2023-03-03T00:12:50;3.20;99.90
678;DHT22;321;48.814;9.132;2023-03-03T00:15:22;3.30;99.90
678;DHT22;321;48.814;9.132;2023-03-03T00:17:49;3.10;99.90
678;DHT22;321;48.814;9.132;2023-03-03T00:20:37;3.20;99.90
678;DHT22;321;48.814;9.132;2023-03-03T00:23:16;3.10;99.90
678;DHT22;321;48.814;9.132;2023-03-03T00:25:44;3.00;99.90
678;DHT22;321;48.814;9.132;2023-03-03T00:28:59;3.00;99.90
678;DHT22;321;48.814;9.132;2023-03-03T00:36:41;3.00;99.90
678;DHT22;321;48.814;9.132;2023-03-03T00:41:52;3.00;99.90
678;DHT22;321;48.814;9.132;2023-03-03T00:44:40;2.90;99.90
678;DHT22;321;48.814;9.132;2023-03-03T00:47:27;2.90;99.90
678;DHT22;321;48.814;9.132;2023-03-03T00:49:54;2.90;99.90
678;DHT22;321;48.814;9.132;2023-03-03T00:52:20;2.70;99.90
678;DHT22;321;48.814;9.132;2023-03-03T00:54:47;2.80;99.90
678;DHT22;321;48.814;9.132;2023-03-03T00:57:13;2.80;99.90
678;DHT22;321;48.814;9.132;2023-03-03T00:59:38;2.80;99.90
678;DHT22;321;48.814;9.132;2023-03-03T01:02:04;2.80;99.90
678;DHT22;321;48.814;9.132;2023-03-03T01:04:30;2.80;99.90
678;DHT22;321;48.814;9.132;2023-03-03T01:06:55;2.80;99.90
678;DHT22;321;48.814;9.132;2023-03-03T01:09:22;2.70;99.90
678;DHT22;321;48.814;9.132;2023-03-03T01:11:48;2.70;99.90
678;DHT22;321;48.814;9.132;2023-03-03T01:14:13;2.70;99.90
678;DHT22;321;48.814;9.132;2023-03-03T01:16:39;2.70;99.90
678;DHT22;321;48.814;9.132;2023-03-03T01:19:06;2.70;99.90
678;DHT22;321;48.814;9.132;2023-03-03T01:21:31;2.70;99.90
678;DHT22;321;48.814;9.132;2023-03-03T01:23:57;2.70;99.90
678;DHT22;321;48.814;9.132;2023-03-03T01:26:23;2.60;99.90
678;DHT22;321;48.814;9.132;2023-03-03T01:28:48;2.70;99.90
678;DHT22;321;48.814;9.132;2023-03-03T01:31:14;2.70;99.90
678;DHT22;321;48.814;9.132;2023-03-03T01:33:39;2.70;99.90
678;DHT22;321;48.814;9.132;2023-03-03T01:36:05;2.70;99.90
678;DHT22;321;48.814;9.132;2023-03-03T01:38:34;2.60;99.90
678;DHT22;321;48.814;9.132;2023-03-03T01:41:01;2.50;99.90
678;DHT22;321;48.814;9.132;2023-03-03T01:43:28;2.50;99.90
678;DHT22;321;48.814;9.132;2023-03-03T01:48:32;2.50;99.90
678;DHT22;321;48.814;9.132;2023-03-03T01:51:28;2.50;99.90
678;DHT22;321;48.814;9.132;2023-03-03T01:54:04;2.50;99.90
678;DHT22;321;48.814;9.132;2023-03-03T01:56:31;2.50;99.90
678;DHT22;321;48.814;9.132;2023-03-03T01:59:06;2.50;99.90
678;DHT22;321;48.814;9.132;2023-03-03T02:01:33;2.50;99.90
678;DHT22;321;48.814;9.132;2023-03-03T02:03:59;2.50;99.90
678;DHT22;321;48.814;9.132;2023-03-03T02:06:34;2.40;99.90
678;DHT22;321;48.814;9.132;2023-03-03T02:11:29;2.50;99.90
678;DHT22;321;48.814;9.132;2023-03-03T02:13:55;2.50;99.90
678;DHT22;321;48.814;9.132;2023-03-03T02:16:21;2.50;99.90
678;DHT22;321;48.814;9.132;2023-03-03T02:18:46;2.50;99.90
678;DHT22;321;48.814;9.132;2023-03-03T02:21:20;2.40;99.90
678;DHT22;321;48.814;9.132;2023-03-03T02:23:54;2.40;99.90
678;DHT22;321;48.814;9.132;2023-03-03T02:26:30;2.50;99.90
678;DHT22;321;48.814;9.132;2023-03-03T02:28:57;2.40;99.90
678;DHT22;321;48.814;9.132;2023-03-03T02:31:26;2.40;99.90
678;DHT22;321;48.814;9.132;2023-03-03T02:33:53;2.40;99.90
678;DHT22;321;48.814;9.132;2023-03-03T02:36:25;2.40;99.90
678;DHT22;321;48.814;9.132;2023-03-03T02:39:17;2.40;99.90
678;DHT22;321;48.814;9.132;2023-03-03T02:41:53;2.40;99.90
678;DHT22;321;48.814;9.132;2023-03-03T02:44:27;2.40;99.90
678;DHT22;321;48.814;9.132;2023-03-03T02:46:54;2.40;99.90
678;DHT22;321;48.814;9.132;2023-03-03T02:49:28;2.30;99.90
678;DHT22;321;48.814;9.132;2023-03-03T02:51:55;2.40;99.90
678;DHT22;321;48.814;9.132;2023-03-03T02:54:23;2.40;99.90
678;DHT22;321;48.814;9.132;2023-03-03T02:56:49;2.30;99.90
678;DHT22;321;48.814;9.132;2023-03-03T02:59:16;2.40;99.90
678;DHT22;321;48.814;9.132;2023-03-03T03:01:42;2.40;99.90
678;DHT22;321;48.814;9.132;2023-03-03T03:04:11;2.50;99.90
678;DHT22;321;48.814;9.132;2023-03-03T03:06:37;2.60;99.90
678;DHT22;321;48.814;9.132;2023-03-03T03:09:04;2.60;99.90
678;DHT22;321;48.814;9.132;2023-03-03T03:11:30;2.60;99.90
678;DHT22;321;48.814;9.132;2023-03-03T03:13:55;2.60;99.90
678;DHT22;321;48.814;9.132;2023-03-03T03:16:21;2.70;99.90
678;DHT22;321;48.814;9.132;2023-03-03T03:18:47;2.80;99.90
678;DHT22;321;48.814;9.132;2023-03-03T03:21:14;2.90;99.90
678;DHT22;321;48.814;9.132;2023-03-03T03:23:40;2.90;99.90
678;DHT22;321;48.814;9.132;2023-03-03T03:26:06;3.00;99.90
678;DHT22;321;48.814;9.132;2023-03-03T03:28:32;3.00;99.90
678;DHT22;321;48.814;9.132;2023-03-03T03:30:58;3.10;99.90
678;DHT22;321;48.814;9.132;2023-03-03T03:33:24;3.20;99.90
678;DHT22;321;48.814;9.132;2023-03-03T03:35:50;3.30;99.90
678;DHT22;321;48.814;9.132;2023-03-03T03:38:16;3.40;99.90
678;DHT22;321;48.814;9.132;2023-03-03T03:40:42;3.40;99.90
678;DHT22;321;48.814;9.132;2023-03-03T03:43:08;3.50;99.90
678;DHT22;321;48.814;9.132;2023-03-03T03:45:33;3.60;99.90
678;DHT22;321;48.814;9.132;2023-03-03T03:47:59;3.70;99.90
678;DHT22;321;48.814;9.132;2023-03-03T03:50:25;3.70;99.90
678;DHT22;321;48.814;9.132;2023-03-03T03:52:51;3.70;99.90
678;DHT22;321;48.814;9.132;2023-03-03T03:55:16;3.70;99.90
678;DHT22;321;48.814;9.132;2023-03-03T03:57:42;3.80;99.90
678;DHT22;321;48.814;9.132;2023-03-03T04:00:09;3.90;99.90
678;DHT22;321;48.814;9.132;2023-03-03T04:02:35;3.90;99.90
678;DHT22;321;48.814;9.132;2023-03-03T04:05:01;4.00;99.90
678;DHT22;321;48.814;9.132;2023-03-03T04:07:27;4.00;99.90
678;DHT22;321;48.814;9.132;2023-03-03T04:09:53;4.00;99.90
678;DHT22;321;48.814;9.132;2023-03-03T04:12:18;4.00;99.90
678;DHT22;321;48.814;9.132;2023-03-03T04:14:44;4.10;99.90
678;DHT22;321;48.814;9.132;2023-03-03T04:17:19;4.10;99.90
678;DHT22;321;48.814;9.132;2023-03-03T04:19:45;4.20;99.90
678;DHT22;321;48.814;9.132;2023-03-03T04:22:11;4.20;99.90
678;DHT22;321;48.814;9.132;2023-03-03T04:24:38;4.30;99.90
678;DHT22;321;48.814;9.132;2023-03-03T04:27:03;4.30;99.90
678;DHT22;321;48.814;9.132;2023-03-03T04:29:29;4.30;99.90
678;DHT22;321;48.814;9.132;2023-03-03T04:31:54;4.30;99.90
678;DHT22;321;48.814;9.132;2023-03-03T04:34:20;4.40;99.90
678;DHT22;321;48.814;9.132;2023-03-03T04:36:46;4.40;99.90
678;DHT22;321;48.814;9.132;2023-03-03T04:39:11;4.40;99.90
678;DHT22;321;48.814;9.132;2023-03-03T04:41:37;4.40;99.90
678;DHT22;321;48.814;9.132;2023-03-03T04:44:03;4.50;99.90
678;DHT22;321;48.814;9.132;2023-03-03T04:46:28;4.50;99.90
678;DHT22;321;48.814;9.132;2023-03-03T04:48:54;4.50;99.90
678;DHT22;321;48.814;9.132;2023-03-03T04:51:20;4.40;99.90
678;DHT22;321;48.814;9.132;2023-03-03T04:53:45;4.40;99.90
678;DHT22;321;48.814;9.132;2023-03-03T04:56:11;4.50;99.90
678;DHT22;321;48.814;9.132;2023-03-03T04:58:36;4.60;99.90
678;DHT22;321;48.814;9.132;2023-03-03T05:01:02;4.70;99.90
678;DHT22;321;48.814;9.132;2023-03-03T05:03:28;4.70;99.90
678;DHT22;321;48.814;9.132;2023-03-03T05:05:53;4.70;99.90
678;DHT22;321;48.814;9.132;2023-03-03T05:08:19;4.70;99.90
678;DHT22;321;48.814;9.132;2023-03-03T05:10:44;4.80;99.90
678;DHT22;321;48.814;9.132;2023-03-03T05:13:10;4.80;99.90
678;DHT22;321;48.814;9.132;2023-03-03T05:15:36;4.80;99.90
678;DHT22;321;48.814;9.132;2023-03-03T05:18:01;4.80;99.90
678;DHT22;321;48.814;9.132;2023-03-03T05:20:27;4.90;99.90
678;DHT22;321;48.814;9.132;2023-03-03T05:22:53;4.90;99.90
678;DHT22;321;48.814;9.132;2023-03-03T05:25:20;4.80;99.90
678;DHT22;321;48.814;9.132;2023-03-03T05:27:46;4.90;99.90
678;DHT22;321;48.814;9.132;2023-03-03T05:30:12;4.90;99.90
678;DHT22;321;48.814;9.132;2023-03-03T05:32:38;4.90;99.90
678;DHT22;321;48.814;9.132;2023-03-03T05:35:04;4.90;99.90
678;DHT22;321;48.814;9.132;2023-03-03T05:37:30;5.00;99.90
678;DHT22;321;48.814;9.132;2023-03-03T05:39:56;5.00;99.90
678;DHT22;321;48.814;9.132;2023-03-03T05:42:21;5.10;99.90
678;DHT22;321;48.814;9.132;2023-03-03T05:44:47;5.10;99.90
678;DHT22;321;48.814;9.132;2023-03-03T05:47:12;5.10;99.90
678;DHT22;321;48.814;9.132;2023-03-03T05:49:38;5.00;99.90
678;DHT22;321;48.814;9.132;2023-03-03T05:52:04;5.00;99.90
678;DHT22;321;48.814;9.132;2023-03-03T05:54:30;5.00;99.90
678;DHT22;321;48.814;9.132;2023-03-03T05:56:55;5.00;99.90
678;DHT22;321;48.814;9.132;2023-03-03T05:59:22;5.00;99.90
678;DHT22;321;48.814;9.132;2023-03-03T06:01:48;5.00;99.90
678;DHT22;321;48.814;9.132;2023-03-03T06:04:13;5.00;99.90
678;DHT22;321;48.814;9.132;2023-03-03T06:06:39;5.10;99.90
678;DHT22;321;48.814;9.132;2023-03-03T06:09:05;5.10;99.90
678;DHT22;321;48.814;9.132;2023-03-03T06:11:30;5.10;99.90
678;DHT22;321;48.814;9.132;2023-03-03T06:13:56;5.10;99.90
678;DHT22;321;48.814;9.132;2023-03-03T06:16:22;5.10;99.90
678;DHT22;321;48.814;9.132;2023-03-03T06:18:47;5.20;99.90
678;DHT22;321;48.814;9.132;2023-03-03T06:21:13;5.10;99.90
678;DHT22;321;48.814;9.132;2023-03-03T06:23:39;5.10;99.90
678;DHT22;321;48.814;9.132;2023-03-03T06:26:04;5.20;99.90
678;DHT22;321;48.814;9.132;2023-03-03T06:28:30;5.20;99.90
678;DHT22;321;48.814;9.132;2023-03-03T06:30:56;5.20;99.90
678;DHT22;321;48.814;9.132;2023-03-03T06:35:52;5.30;99.90
678;DHT22;321;48.814;9.132;2023-03-03T06:40:45;5.30;99.90
678;DHT22;321;48.814;9.132;2023-03-03T06:53:09;5.40;99.90
678;DHT22;321;48.814;9.132;2023-03-03T06:58:07;5.50;99.90
678;DHT22;321;48.814;9.132;2023-03-03T07:03:06;5.40;99.90
678;DHT22;321;48.814;9.132;2023-03-03T07:10:29;5.60;99.90
678;DHT22;321;48.814;9.132;2023-03-03T07:13:01;5.50;99.90
678;DHT22;321;48.814;9.132;2023-03-03T07:18:08;5.60;99.90
678;DHT22;321;48.814;9.132;2023-03-03T07:20:44;5.90;99.90
678;DHT22;321;48.814;9.132;2023-03-03T07:23:38;5.70;99.90
678;DHT22;321;48.814;9.132;2023-03-03T07:26:13;5.80;99.90
678;DHT22;321;48.814;9.132;2023-03-03T07:28:41;5.60;99.90
678;DHT22;321;48.814;9.132;2023-03-03T07:31:33;5.90;99.90
678;DHT22;321;48.814;9.132;2023-03-03T07:34:02;6.40;99.90
678;DHT22;321;48.814;9.132;2023-03-03T07:36:34;6.10;99.90
678;DHT22;321;48.814;9.132;2023-03-03T07:39:02;6.20;99.90
678;DHT22;321;48.814;9.132;2023-03-03T07:44:03;6.20;99.90
678;DHT22;321;48.814;9.132;2023-03-03T07:48:57;6.20;99.90
678;DHT22;321;48.814;9.132;2023-03-03T07:51:35;6.30;99.90
678;DHT22;321;48.814;9.132;2023-03-03T07:54:21;6.40;99.90
678;DHT22;321;48.814;9.132;2023-03-03T07:56:57;6.40;99.90
678;DHT22;321;48.814;9.132;2023-03-03T07:59:26;6.70;99.90
678;DHT22;321;48.814;9.132;2023-03-03T08:01:56;7.30;99.90
678;DHT22;321;48.814;9.132;2023-03-03T08:04:38;6.80;99.90
678;DHT22;321;48.814;9.132;2023-03-03T08:07:11;6.80;99.90
678;DHT22;321;48.814;9.132;2023-03-03T08:10:07;6.90;99.90
678;DHT22;321;48.814;9.132;2023-03-03T08:12:28;6.80;99.90
678;DHT22;321;48.814;9.132;2023-03-03T08:15:01;6.90;99.90
678;DHT22;321;48.814;9.132;2023-03-03T08:17:35;7.10;99.90
678;DHT22;321;48.814;9.132;2023-03-03T08:22:54;7.30;98.90
678;DHT22;321;48.814;9.132;2023-03-03T08:25:20;7.50;98.60
678;DHT22;321;48.814;9.132;2023-03-03T08:27:46;7.60;98.30
678;DHT22;321;48.814;9.132;2023-03-03T08:30:11;7.70;97.90
678;DHT22;321;48.814;9.132;2023-03-03T08:32:37;7.90;97.60
678;DHT22;321;48.814;9.132;2023-03-03T08:35:03;8.10;97.80
678;DHT22;321;48.814;9.132;2023-03-03T08:37:28;8.30;97.70
678;DHT22;321;48.814;9.132;2023-03-03T08:39:54;8.40;97.60
678;DHT22;321;48.814;9.132;2023-03-03T08:42:19;8.80;97.10
678;DHT22;321;48.814;9.132;2023-03-03T08:44:45;9.20;96.00
678;DHT22;321;48.814;9.132;2023-03-03T08:47:10;9.50;95.60
678;DHT22;321;48.814;9.132;2023-03-03T08:49:36;9.60;94.10
678;DHT22;321;48.814;9.132;2023-03-03T08:52:02;9.50;94.30
678;DHT22;321;48.814;9.132;2023-03-03T08:54:28;9.70;95.00
678;DHT22;321;48.814;9.132;2023-03-03T08:56:54;10.10;93.90
678;DHT22;321;48.814;9.132;2023-03-03T08:59:20;10.40;92.00
678;DHT22;321;48.814;9.132;2023-03-03T09:01:46;10.50;92.00
678;DHT22;321;48.814;9.132;2023-03-03T09:04:12;10.70;92.10
678;DHT22;321;48.814;9.132;2023-03-03T09:06:38;10.90;91.10
678;DHT22;321;48.814;9.132;2023-03-03T09:09:04;10.60;90.90
678;DHT22;321;48.814;9.132;2023-03-03T09:11:30;11.20;91.00
678;DHT22;321;48.814;9.132;2023-03-03T09:14:26;11.60;89.30
678;DHT22;321;48.814;9.132;2023-03-03T09:16:54;11.30;87.70
678;DHT22;321;48.814;9.132;2023-03-03T09:19:31;11.60;89.00
678;DHT22;321;48.814;9.132;2023-03-03T09:22:24;12.30;88.40
678;DHT22;321;48.814;9.132;2023-03-03T09:24:53;13.00;84.70
678;DHT22;321;48.814;9.132;2023-03-03T09:27:34;13.30;84.10
678;DHT22;321;48.814;9.132;2023-03-03T09:32:56;13.40;85.30
678;DHT22;321;48.814;9.132;2023-03-03T09:35:35;13.50;82.00
678;DHT22;321;48.814;9.132;2023-03-03T09:44:14;13.00;80.60
678;DHT22;321;48.814;9.132;2023-03-03T09:46:43;12.80;81.00
678;DHT22;321;48.814;9.132;2023-03-03T09:49:33;12.60;81.70
678;DHT22;321;48.814;9.132;2023-03-03T09:55:39;12.90;80.30
678;DHT22;321;48.814;9.132;2023-03-03T10:06:32;13.00;83.60
678;DHT22;321;48.814;9.132;2023-03-03T10:19:38;13.40;81.40
678;DHT22;321;48.814;9.132;2023-03-03T10:27:57;14.10;76.80
678;DHT22;321;48.814;9.132;2023-03-03T10:31:04;14.00;78.70
678;DHT22;321;48.814;9.132;2023-03-03T10:42:15;14.20;78.30
678;DHT22;321;48.814;9.132;2023-03-03T10:47:57;14.50;81.60
678;DHT22;321;48.814;9.132;2023-03-03T10:53:13;15.20;76.20
678;DHT22;321;48.814;9.132;2023-03-03T10:56:19;15.10;75.20
678;DHT22;321;48.814;9.132;2023-03-03T11:07:25;15.20;75.00
678;DHT22;321;48.814;9.132;2023-03-03T11:10:03;15.60;78.60
678;DHT22;321;48.814;9.132;2023-03-03T11:19:03;15.30;73.30
678;DHT22;321;48.814;9.132;2023-03-03T11:22:00;15.70;73.10
678;DHT22;321;48.814;9.132;2023-03-03T11:24:38;15.40;72.10
678;DHT22;321;48.814;9.132;2023-03-03T11:32:57;14.70;73.90
678;DHT22;321;48.814;9.132;2023-03-03T11:41:28;14.00;77.20
678;DHT22;321;48.814;9.132;2023-03-03T11:47:04;13.50;79.30
678;DHT22;321;48.814;9.132;2023-03-03T11:49:38;13.30;76.80
678;DHT22;321;48.814;9.132;2023-03-03T11:54:55;13.50;76.60
678;DHT22;321;48.814;9.132;2023-03-03T11:57:45;13.40;75.90
678;DHT22;321;48.814;9.132;2023-03-03T12:00:40;13.10;76.10
678;DHT22;321;48.814;9.132;2023-03-03T12:03:33;13.10;77.20
678;DHT22;321;48.814;9.132;2023-03-03T12:06:11;12.80;77.40
678;DHT22;321;48.814;9.132;2023-03-03T12:11:52;12.90;79.40
678;DHT22;321;48.814;9.132;2023-03-03T12:17:39;12.90;79.60
678;DHT22;321;48.814;9.132;2023-03-03T12:20:04;13.10;78.40
678;DHT22;321;48.814;9.132;2023-03-03T12:25:53;12.70;78.40
678;DHT22;321;48.814;9.132;2023-03-03T12:28:26;13.00;82.30
678;DHT22;321;48.814;9.132;2023-03-03T12:31:14;13.20;78.50
678;DHT22;321;48.814;9.132;2023-03-03T12:34:02;13.00;78.30
678;DHT22;321;48.814;9.132;2023-03-03T12:39:30;12.00;78.50
678;DHT22;321;48.814;9.132;2023-03-03T12:41:59;11.90;82.00
678;DHT22;321;48.814;9.132;2023-03-03T12:47:40;11.60;83.20
678;DHT22;321;48.814;9.132;2023-03-03T12:50:18;11.30;83.40
678;DHT22;321;48.814;9.132;2023-03-03T12:56:07;11.30;83.70
678;DHT22;321;48.814;9.132;2023-03-03T13:04:35;11.00;87.90
678;DHT22;321;48.814;9.132;2023-03-03T13:10:02;10.60;85.30
678;DHT22;321;48.814;9.132;2023-03-03T13:28:21;10.50;84.70
678;DHT22;321;48.814;9.132;2023-03-03T13:30:49;10.50;85.80
678;DHT22;321;48.814;9.132;2023-03-03T13:33:33;10.50;86.40
678;DHT22;321;48.814;9.132;2023-03-03T13:38:49;10.20;86.20
678;DHT22;321;48.814;9.132;2023-03-03T13:41:43;10.30;86.70
678;DHT22;321;48.814;9.132;2023-03-03T13:44:24;10.00;97.40
678;DHT22;321;48.814;9.132;2023-03-03T13:52:37;10.20;97.00
678;DHT22;321;48.814;9.132;2023-03-03T13:55:20;10.20;97.00
678;DHT22;321;48.814;9.132;2023-03-03T13:57:56;10.10;88.30
678;DHT22;321;48.814;9.132;2023-03-03T14:03:15;10.20;90.30
678;DHT22;321;48.814;9.132;2023-03-03T14:05:50;10.10;89.00
678;DHT22;321;48.814;9.132;2023-03-03T14:11:20;10.10;89.00
678;DHT22;321;48.814;9.132;2023-03-03T14:19:25;9.90;90.40
678;DHT22;321;48.814;9.132;2023-03-03T14:22:05;9.90;90.90
678;DHT22;321;48.814;9.132;2023-03-03T14:24:56;9.90;91.20
678;DHT22;321;48.814;9.132;2023-03-03T14:27:25;9.90;90.70
678;DHT22;321;48.814;9.132;2023-03-03T14:29:51;10.00;90.60
678;DHT22;321;48.814;9.132;2023-03-03T14:32:26;10.00;98.70
678;DHT22;321;48.814;9.132;2023-03-03T14:34:58;9.90;97.00
678;DHT22;321;48.814;9.132;2023-03-03T14:37:28;10.10;91.90
678;DHT22;321;48.814;9.132;2023-03-03T14:47:55;10.00;99.80
678;DHT22;321;48.814;9.132;2023-03-03T14:50:31;10.00;89.20
678;DHT22;321;48.814;9.132;2023-03-03T14:53:12;10.00;89.60
678;DHT22;321;48.814;9.132;2023-03-03T14:55:40;10.10;90.20
678;DHT22;321;48.814;9.132;2023-03-03T14:58:37;10.30;90.50
678;DHT22;321;48.814;9.132;2023-03-03T15:03:34;10.30;98.00
678;DHT22;321;48.814;9.132;2023-03-03T15:06:12;9.90;99.90
678;DHT22;321;48.814;9.132;2023-03-03T15:13:43;9.90;93.20
678;DHT22;321;48.814;9.132;2023-03-03T15:16:22;9.80;91.50
678;DHT22;321;48.814;9.132;2023-03-03T15:21:30;9.70;99.90
678;DHT22;321;48.814;9.132;2023-03-03T15:32:14;9.70;91.30
678;DHT22;321;48.814;9.132;2023-03-03T15:34:49;9.80;91.10
678;DHT22;321;48.814;9.132;2023-03-03T15:37:48;9.80;91.30
678;DHT22;321;48.814;9.132;2023-03-03T15:40:26;9.70;91.80
678;DHT22;321;48.814;9.132;2023-03-03T15:43:19;9.80;93.60
678;DHT22;321;48.814;9.132;2023-03-03T15:45:57;9.60;99.90
678;DHT22;321;48.814;9.132;2023-03-03T15:48:59;9.80;99.90
678;DHT22;321;48.814;9.132;2023-03-03T15:57:01;9.60;92.20
678;DHT22;321;48.814;9.132;2023-03-03T16:02:17;9.70;93.80
678;DHT22;321;48.814;9.132;2023-03-03T16:05:21;9.70;95.10
678;DHT22;321;48.814;9.132;2023-03-03T16:08:09;9.70;95.20
678;DHT22;321;48.814;9.132;2023-03-03T16:13:31;9.80;95.20
678;DHT22;321;48.814;9.132;2023-03-03T16:23:51;9.40;91.90
678;DHT22;321;48.814;9.132;2023-03-03T16:26:42;9.30;92.50
678;DHT22;321;48.814;9.132;2023-03-03T16:31:57;9.10;92.50
678;DHT22;321;48.814;9.132;2023-03-03T16:40:19;9.00;93.40
678;DHT22;321;48.814;9.132;2023-03-03T16:42:49;9.00;93.90
678;DHT22;321;48.814;9.132;2023-03-03T16:55:48;8.60;94.10
678;DHT22;321;48.814;9.132;2023-03-03T17:10:03;8.20;94.50
678;DHT22;321;48.814;9.132;2023-03-03T17:20:49;8.10;94.80
678;DHT22;321;48.814;9.132;2023-03-03T17:40:22;7.80;99.90
678;DHT22;321;48.814;9.132;2023-03-03T17:43:16;7.60;99.90
678;DHT22;321;48.814;9.132;2023-03-03T17:45:45;7.60;98.10
678;DHT22;321;48.814;9.132;2023-03-03T18:22:16;6.30;99.40
678;DHT22;321;48.814;9.132;2023-03-03T18:42:44;5.90;99.90
678;DHT22;321;48.814;9.132;2023-03-03T18:48:09;5.80;99.90
678;DHT22;321;48.814;9.132;2023-03-03T18:53:24;5.80;99.90
678;DHT22;321;48.814;9.132;2023-03-03T18:56:02;5.50;99.90
678;DHT22;321;48.814;9.132;2023-03-03T18:58:34;5.40;99.90
678;DHT22;321;48.814;9.132;2023-03-03T19:09:10;5.30;99.90
678;DHT22;321;48.814;9.132;2023-03-03T19:20:13;5.20;99.90
678;DHT22;321;48.814;9.132;2023-03-03T19:22:47;4.60;99.90
678;DHT22;321;48.814;9.132;2023-03-03T19:25:17;5.50;99.90
678;DHT22;321;48.814;9.132;2023-03-03T19:31:00;5.00;99.90
678;DHT22;321;48.814;9.132;2023-03-03T19:33:46;4.90;99.90
678;DHT22;321;48.814;9.132;2023-03-03T19:52:59;4.80;99.90
678;DHT22;321;48.814;9.132;2023-03-03T20:04:15;4.80;99.90
678;DHT22;321;48.814;9.132;2023-03-03T20:09:20;4.80;99.90
678;DHT22;321;48.814;9.132;2023-03-03T20:11:53;4.80;99.90
678;DHT22;321;48.814;9.132;2023-03-03T20:14:43;4.80;99.90
678;DHT22;321;48.814;9.132;2023-03-03T20:19:51;4.70;99.90
678;DHT22;321;48.814;9.132;2023-03-03T20:25:28;4.70;99.90
678;DHT22;321;48.814;9.132;2023-03-03T20:39:09;4.50;99.90
678;DHT22;321;48.814;9.132;2023-03-03T20:41:56;4.50;99.90
678;DHT22;321;48.814;9.132;2023-03-03T20:44:54;4.40;99.90
678;DHT22;321;48.814;9.132;2023-03-03T20:47:51;4.40;99.90
678;DHT22;321;48.814;9.132;2023-03-03T20:50:34;4.40;99.90
678;DHT22;321;48.814;9.132;2023-03-03T20:53:11;4.20;99.90
678;DHT22;321;48.814;9.132;2023-03-03T20:55:44;4.00;99.90
678;DHT22;321;48.814;9.132;2023-03-03T21:01:05;3.90;99.90
678;DHT22;321;48.814;9.132;2023-03-03T21:03:40;4.10;99.90
678;DHT22;321;48.814;9.132;2023-03-03T21:06:15;4.30;99.90
678;DHT22;321;48.814;9.132;2023-03-03T21:11:21;4.40;99.90
678;DHT22;321;48.814;9.132;2023-03-03T21:13:52;4.40;99.90
678;DHT22;321;48.814;9.132;2023-03-03T21:19:06;4.40;99.90
678;DHT22;321;48.814;9.132;2023-03-03T21:21:38;4.40;99.90
678;DHT22;321;48.814;9.132;2023-03-03T21:24:05;4.40;99.90
678;DHT22;321;48.814;9.132;2023-03-03T21:26:53;4.40;99.90
678;DHT22;321;48.814;9.132;2023-03-03T21:31:50;4.30;99.90
678;DHT22;321;48.814;9.132;2023-03-03T21:34:38;4.30;99.90
678;DHT22;321;48.814;9.132;2023-03-03T21:37:07;4.20;99.90
678;DHT22;321;48.814;9.132;2023-03-03T21:42:00;4.10;99.90
678;DHT22;321;48.814;9.132;2023-03-03T21:44:30;4.10;99.90
678;DHT22;321;48.814;9.132;2023-03-03T21:46:56;4.10;99.90
678;DHT22;321;48.814;9.132;2023-03-03T21:49:22;4.10;99.90
678;DHT22;321;48.814;9.132;2023-03-03T21:51:47;4.10;99.90
678;DHT22;321;48.814;9.132;2023-03-03T21:54:13;4.00;99.90
678;DHT22;321;48.814;9.132;2023-03-03T21:56:38;4.00;99.90
678;DHT22;321;48.814;9.132;2023-03-03T21:59:06;3.90;99.90
678;DHT22;321;48.814;9.132;2023-03-03T22:01:32;3.90;99.90
678;DHT22;321;48.814;9.132;2023-03-03T22:03:58;3.80;99.90
678;DHT22;321;48.814;9.132;2023-03-03T22:06:24;3.70;99.90
678;DHT22;321;48.814;9.132;2023-03-03T22:08:49;3.70;99.90
678;DHT22;321;48.814;9.132;2023-03-03T22:11:15;3.80;99.90
678;DHT22;321;48.814;9.132;2023-03-03T22:13:40;3.90;99.90
678;DHT22;321;48.814;9.132;2023-03-03T22:16:07;3.80;99.90
678;DHT22;321;48.814;9.132;2023-03-03T22:18:32;3.70;99.90
678;DHT22;321;48.814;9.132;2023-03-03T22:23:24;3.70;99.90
678;DHT22;321;48.814;9.132;2023-03-03T22:25:50;3.70;99.90
678;DHT22;321;48.814;9.132;2023-03-03T22:28:15;3.70;99.90
678;DHT22;321;48.814;9.132;2023-03-03T22:30:41;3.60;99.90
678;DHT22;321;48.814;9.132;2023-03-03T22:33:07;3.60;99.90
678;DHT22;321;48.814;9.132;2023-03-03T22:35:32;3.60;99.90
678;DHT22;321;48.814;9.132;2023-03-03T22:37:58;3.60;99.90
678;DHT22;321;48.814;9.132;2023-03-03T22:40:24;3.50;99.90
678;DHT22;321;48.814;9.132;2023-03-03T22:42:49;3.40;99.90
678;DHT22;321;48.814;9.132;2023-03-03T22:45:15;3.40;99.90
678;DHT22;321;48.814;9.132;2023-03-03T22:47:41;3.40;99.90
678;DHT22;321;48.814;9.132;2023-03-03T22:50:07;3.40;99.90
678;DHT22;321;48.814;9.132;2023-03-03T22:52:33;3.40;99.90
678;DHT22;321;48.814;9.132;2023-03-03T22:54:58;3.40;99.90
678;DHT22;321;48.814;9.132;2023-03-03T22:57:24;3.50;99.90
678;DHT22;321;48.814;9.132;2023-03-03T22:59:50;3.40;99.90
678;DHT22;321;48.814;9.132;2023-03-03T23:02:16;3.40;99.90
678;DHT22;321;48.814;9.132;2023-03-03T23:04:42;3.30;99.90
678;DHT22;321;48.814;9.132;2023-03-03T23:07:08;3.30;99.90
678;DHT22;321;48.814;9.132;2023-03-03T23:09:34;2.90;99.90
678;DHT22;321;48.814;9.132;2023-03-03T23:11:59;3.30;99.90
678;DHT22;321;48.814;9.132;2023-03-03T23:16:51;3.80;99.90
678;DHT22;321;48.814;9.132;2023-03-03T23:24:08;2.70;99.90
678;DHT22;321;48.814;9.132;2023-03-03T23:26:35;3.00;99.90
678;DHT22;321;48.814;9.132;2023-03-03T23:31:27;2.90;99.90
678;DHT22;321;48.814;9.132;2023-03-03T23:33:53;3.20;99.90
678;DHT22;321;48.814;9.132;2023-03-03T23:36:19;2.80;99.90
678;DHT22;321;48.814;9.132;2023-03-03T23:38:44;2.80;99.90
678;DHT22;321;48.814;9.132;2023-03-03T23:41:10;3.00;99.90
678;DHT22;321;48.814;9.132;2023-03-03T23:43:35;2.90;99.90
678;DHT22;321;48.814;9.132;2023-03-03T23:46:01;2.80;99.90
678;DHT22;321;48.814;9.132;2023-03-03T23:48:26;2.80;99.90
678;DHT22;321;48.814;9.132;2023-03-03T23:50:52;2.90;99.90
678;DHT22;321;48.814;9.132;2023-03-03T23:53:17;2.90;99.90
678;DHT22;321;48.814;9.132;2023-03-03T23:55:43;2.80;99.90
678;DHT22;321;48.814;9.132;2023-03-03T23:58:10;2.80;99.90
